sensor_id;sensor_type;location;lat;lon;timestamp;pressure;altitude;pressure_sealevel;temperature;humidity
21988;BME280;11158;53.404;-1.510;2023-04-10T00:01:34;100087.53;;;14.38;49.97
21988;BME280;11158;53.404;-1.510;2023-04-10T00:04:19;100087.09;;;14.41;50.01
21988;BME280;11158;53.404;-1.510;2023-04-10T00:07:03;100084.63;;;14.40;49.82
21988;BME280;11158;53.404;-1.510;2023-04-10T00:09:47;100078.94;;;13.85;51.36
21988;BME280;11158;53.404;-1.510;2023-04-10T00:12:31;100069.50;;;14.14;50.53
21988;BME280;11158;53.404;-1.510;2023-04-10T00:15:15;100062.47;;;14.13;50.85
21988;BME280;11158;53.404;-1.510;2023-04-10T00:17:59;100059.78;;;13.74;52.39
21988;BME280;11158;53.404;-1.510;2023-04-10T00:20:43;100052.03;;;13.91;52.53
21988;BME280;11158;53.404;-1.510;2023-04-10T00:23:28;100048.56;;;13.84;52.72
21988;BME280;11158;53.404;-1.510;2023-04-10T00:26:15;100049.78;;;13.88;52.94
21988;BME280;11158;53.404;-1.510;2023-04-10T00:28:59;100042.56;;;13.89;52.58
21988;BME280;11158;53.404;-1.510;2023-04-10T00:31:43;100035.69;;;13.54;53.76
21988;BME280;11158;53.404;-1.510;2023-04-10T00:34:27;100035.56;;;14.13;52.24
21988;BME280;11158;53.404;-1.510;2023-04-10T00:37:11;100026.44;;;13.89;52.80
21988;BME280;11158;53.404;-1.510;2023-04-10T00:40:10;100037.13;;;13.57;53.93
21988;BME280;11158;53.404;-1.510;2023-04-10T00:42:55;100029.13;;;13.24;54.60
21988;BME280;11158;53.404;-1.510;2023-04-10T00:45:39;100022.59;;;13.71;53.29
21988;BME280;11158;53.404;-1.510;2023-04-10T00:48:24;100022.63;;;13.58;53.98
21988;BME280;11158;53.404;-1.510;2023-04-10T00:51:08;100026.91;;;14.11;52.52
21988;BME280;11158;53.404;-1.510;2023-04-10T00:53:52;100024.22;;;14.42;51.65
21988;BME280;11158;53.404;-1.510;2023-04-10T00:56:40;100005.69;;;13.57;53.20
21988;BME280;11158;53.404;-1.510;2023-04-10T00:59:24;100010.78;;;14.11;52.39
21988;BME280;11158;53.404;-1.510;2023-04-10T01:02:09;100010.25;;;14.02;53.36
21988;BME280;11158;53.404;-1.510;2023-04-10T01:04:55;100007.47;;;14.09;54.13
21988;BME280;11158;53.404;-1.510;2023-04-10T01:08:16;100003.94;;;13.25;57.40
21988;BME280;11158;53.404;-1.510;2023-04-10T01:11:22;100007.53;;;12.92;58.92
21988;BME280;11158;53.404;-1.510;2023-04-10T01:20:21;99987.78;;;12.40;61.89
21988;BME280;11158;53.404;-1.510;2023-04-10T01:26:11;99979.47;;;13.01;60.51
21988;BME280;11158;53.404;-1.510;2023-04-10T01:29:10;99977.03;;;12.66;61.75
21988;BME280;11158;53.404;-1.510;2023-04-10T01:32:01;99979.22;;;13.09;60.59
21988;BME280;11158;53.404;-1.510;2023-04-10T01:34:51;99961.47;;;13.08;60.02
21988;BME280;11158;53.404;-1.510;2023-04-10T01:37:39;99962.19;;;12.70;61.82
21988;BME280;11158;53.404;-1.510;2023-04-10T01:40:28;99956.44;;;12.53;61.93
21988;BME280;11158;53.404;-1.510;2023-04-10T01:43:12;99951.44;;;12.70;62.34
21988;BME280;11158;53.404;-1.510;2023-04-10T01:45:58;99949.00;;;12.62;62.33
21988;BME280;11158;53.404;-1.510;2023-04-10T01:48:45;99932.03;;;12.82;61.06
21988;BME280;11158;53.404;-1.510;2023-04-10T01:51:30;99931.53;;;13.11;59.95
21988;BME280;11158;53.404;-1.510;2023-04-10T01:54:16;99915.28;;;12.93;60.79
21988;BME280;11158;53.404;-1.510;2023-04-10T01:57:01;99921.94;;;12.77;61.59
21988;BME280;11158;53.404;-1.510;2023-04-10T01:59:46;99921.97;;;12.57;61.93
21988;BME280;11158;53.404;-1.510;2023-04-10T02:02:32;99918.13;;;13.11;60.47
21988;BME280;11158;53.404;-1.510;2023-04-10T02:05:16;99913.91;;;12.70;61.01
21988;BME280;11158;53.404;-1.510;2023-04-10T02:11:05;99926.09;;;13.38;59.39
21988;BME280;11158;53.404;-1.510;2023-04-10T02:13:52;99925.41;;;13.81;58.65
21988;BME280;11158;53.404;-1.510;2023-04-10T02:16:37;99915.03;;;13.08;59.91
21988;BME280;11158;53.404;-1.510;2023-04-10T02:19:24;99916.84;;;13.66;58.52
21988;BME280;11158;53.404;-1.510;2023-04-10T02:22:10;99905.22;;;13.72;58.65
21988;BME280;11158;53.404;-1.510;2023-04-10T02:24:56;99906.88;;;13.73;58.50
21988;BME280;11158;53.404;-1.510;2023-04-10T02:27:40;99907.28;;;13.70;58.82
21988;BME280;11158;53.404;-1.510;2023-04-10T02:30:25;99921.09;;;13.41;59.80
21988;BME280;11158;53.404;-1.510;2023-04-10T02:33:09;99903.88;;;13.11;61.28
21988;BME280;11158;53.404;-1.510;2023-04-10T02:35:53;99887.56;;;13.57;59.55
21988;BME280;11158;53.404;-1.510;2023-04-10T02:38:38;99868.94;;;14.13;58.44
21988;BME280;11158;53.404;-1.510;2023-04-10T02:41:22;99874.59;;;13.48;60.67
21988;BME280;11158;53.404;-1.510;2023-04-10T02:44:07;99864.84;;;13.53;60.81
21988;BME280;11158;53.404;-1.510;2023-04-10T02:46:51;99850.41;;;13.54;60.62
21988;BME280;11158;53.404;-1.510;2023-04-10T02:49:35;99845.88;;;13.10;62.00
21988;BME280;11158;53.404;-1.510;2023-04-10T02:52:20;99844.06;;;13.42;61.73
21988;BME280;11158;53.404;-1.510;2023-04-10T02:55:05;99838.16;;;13.27;61.85
21988;BME280;11158;53.404;-1.510;2023-04-10T02:57:50;99831.44;;;13.49;60.92
21988;BME280;11158;53.404;-1.510;2023-04-10T03:00:34;99828.22;;;13.34;61.54
21988;BME280;11158;53.404;-1.510;2023-04-10T03:03:19;99813.06;;;13.46;60.79
21988;BME280;11158;53.404;-1.510;2023-04-10T03:06:03;99820.53;;;13.69;60.32
21988;BME280;11158;53.404;-1.510;2023-04-10T03:08:48;99819.16;;;13.21;62.27
21988;BME280;11158;53.404;-1.510;2023-04-10T03:11:32;99807.34;;;13.68;60.83
21988;BME280;11158;53.404;-1.510;2023-04-10T03:14:17;99797.84;;;13.40;61.42
21988;BME280;11158;53.404;-1.510;2023-04-10T03:17:01;99799.91;;;12.99;63.13
21988;BME280;11158;53.404;-1.510;2023-04-10T03:19:46;99794.19;;;13.59;61.45
21988;BME280;11158;53.404;-1.510;2023-04-10T03:22:30;99790.53;;;13.79;61.14
21988;BME280;11158;53.404;-1.510;2023-04-10T03:25:16;99786.63;;;13.75;59.87
21988;BME280;11158;53.404;-1.510;2023-04-10T03:28:00;99793.56;;;13.26;62.05
21988;BME280;11158;53.404;-1.510;2023-04-10T03:30:45;99772.66;;;14.46;58.66
21988;BME280;11158;53.404;-1.510;2023-04-10T03:33:30;99770.28;;;15.05;56.70
21988;BME280;11158;53.404;-1.510;2023-04-10T03:36:14;99767.06;;;14.48;57.82
21988;BME280;11158;53.404;-1.510;2023-04-10T03:38:58;99774.75;;;14.26;58.98
21988;BME280;11158;53.404;-1.510;2023-04-10T03:41:42;99785.72;;;13.56;61.41
21988;BME280;11158;53.404;-1.510;2023-04-10T03:44:27;99771.28;;;14.00;59.90
21988;BME280;11158;53.404;-1.510;2023-04-10T03:47:11;99772.81;;;14.33;59.00
21988;BME280;11158;53.404;-1.510;2023-04-10T03:49:55;99781.13;;;12.99;62.34
21988;BME280;11158;53.404;-1.510;2023-04-10T03:52:39;99782.72;;;13.07;63.29
21988;BME280;11158;53.404;-1.510;2023-04-10T03:55:23;99777.88;;;13.29;62.54
21988;BME280;11158;53.404;-1.510;2023-04-10T03:58:07;99765.34;;;13.73;61.18
21988;BME280;11158;53.404;-1.510;2023-04-10T04:00:52;99755.50;;;13.86;60.89
21988;BME280;11158;53.404;-1.510;2023-04-10T04:03:36;99751.91;;;13.73;61.58
21988;BME280;11158;53.404;-1.510;2023-04-10T04:06:20;99761.69;;;13.43;62.28
21988;BME280;11158;53.404;-1.510;2023-04-10T04:09:04;99743.72;;;13.43;62.32
21988;BME280;11158;53.404;-1.510;2023-04-10T04:11:49;99739.50;;;13.79;60.46
21988;BME280;11158;53.404;-1.510;2023-04-10T04:14:33;99739.63;;;13.02;63.32
21988;BME280;11158;53.404;-1.510;2023-04-10T04:17:17;99750.00;;;13.30;63.22
21988;BME280;11158;53.404;-1.510;2023-04-10T04:20:01;99752.34;;;14.14;60.70
21988;BME280;11158;53.404;-1.510;2023-04-10T04:22:46;99746.06;;;14.01;60.79
21988;BME280;11158;53.404;-1.510;2023-04-10T04:25:30;99738.66;;;13.53;61.99
21988;BME280;11158;53.404;-1.510;2023-04-10T04:28:14;99734.84;;;13.68;62.34
21988;BME280;11158;53.404;-1.510;2023-04-10T04:30:58;99728.28;;;13.82;61.66
21988;BME280;11158;53.404;-1.510;2023-04-10T04:33:43;99728.22;;;13.89;61.60
21988;BME280;11158;53.404;-1.510;2023-04-10T04:36:28;99738.03;;;13.76;61.96
21988;BME280;11158;53.404;-1.510;2023-04-10T04:39:12;99734.38;;;13.71;62.39
21988;BME280;11158;53.404;-1.510;2023-04-10T04:41:56;99734.75;;;14.18;61.30
21988;BME280;11158;53.404;-1.510;2023-04-10T04:44:40;99726.00;;;14.41;60.24
21988;BME280;11158;53.404;-1.510;2023-04-10T04:47:25;99725.75;;;14.42;60.23
21988;BME280;11158;53.404;-1.510;2023-04-10T04:50:09;99717.81;;;14.48;59.67
21988;BME280;11158;53.404;-1.510;2023-04-10T04:52:53;99712.56;;;14.22;60.49
21988;BME280;11158;53.404;-1.510;2023-04-10T04:55:37;99706.41;;;14.15;60.73
21988;BME280;11158;53.404;-1.510;2023-04-10T04:58:21;99708.66;;;14.37;60.27
21988;BME280;11158;53.404;-1.510;2023-04-10T05:01:07;99692.31;;;14.57;59.74
21988;BME280;11158;53.404;-1.510;2023-04-10T05:03:52;99701.13;;;14.09;60.57
21988;BME280;11158;53.404;-1.510;2023-04-10T05:06:36;99702.22;;;14.38;60.43
21988;BME280;11158;53.404;-1.510;2023-04-10T05:09:20;99706.66;;;14.32;60.88
21988;BME280;11158;53.404;-1.510;2023-04-10T05:12:04;99703.66;;;14.03;61.91
21988;BME280;11158;53.404;-1.510;2023-04-10T05:14:48;99697.44;;;14.40;60.61
21988;BME280;11158;53.404;-1.510;2023-04-10T05:17:32;99693.22;;;14.32;60.58
21988;BME280;11158;53.404;-1.510;2023-04-10T05:20:17;99692.72;;;14.54;60.32
21988;BME280;11158;53.404;-1.510;2023-04-10T05:23:03;99684.22;;;14.38;60.23
21988;BME280;11158;53.404;-1.510;2023-04-10T05:25:47;99677.72;;;13.97;61.66
21988;BME280;11158;53.404;-1.510;2023-04-10T05:28:31;99683.75;;;13.93;61.56
21988;BME280;11158;53.404;-1.510;2023-04-10T05:31:15;99687.16;;;14.55;59.95
21988;BME280;11158;53.404;-1.510;2023-04-10T05:33:59;99666.81;;;14.90;59.43
21988;BME280;11158;53.404;-1.510;2023-04-10T05:36:43;99665.25;;;14.82;59.26
21988;BME280;11158;53.404;-1.510;2023-04-10T05:39:27;99667.31;;;15.22;58.19
21988;BME280;11158;53.404;-1.510;2023-04-10T05:42:11;99671.69;;;15.58;57.04
21988;BME280;11158;53.404;-1.510;2023-04-10T05:44:56;99665.97;;;15.78;56.26
21988;BME280;11158;53.404;-1.510;2023-04-10T05:47:40;99657.03;;;15.78;56.40
21988;BME280;11158;53.404;-1.510;2023-04-10T05:50:24;99653.63;;;15.47;57.17
21988;BME280;11158;53.404;-1.510;2023-04-10T05:53:13;99655.41;;;15.65;56.78
21988;BME280;11158;53.404;-1.510;2023-04-10T05:55:58;99655.03;;;15.38;57.09
21988;BME280;11158;53.404;-1.510;2023-04-10T05:58:45;99654.44;;;15.12;58.45
21988;BME280;11158;53.404;-1.510;2023-04-10T06:01:29;99637.13;;;15.08;58.23
21988;BME280;11158;53.404;-1.510;2023-04-10T06:04:13;99648.78;;;15.02;58.49
21988;BME280;11158;53.404;-1.510;2023-04-10T06:06:57;99634.66;;;15.18;58.40
21988;BME280;11158;53.404;-1.510;2023-04-10T06:09:41;99641.81;;;15.24;58.02
21988;BME280;11158;53.404;-1.510;2023-04-10T06:12:25;99635.88;;;14.69;59.73
21988;BME280;11158;53.404;-1.510;2023-04-10T06:15:09;99625.75;;;14.94;59.36
21988;BME280;11158;53.404;-1.510;2023-04-10T06:17:56;99622.38;;;15.46;58.26
21988;BME280;11158;53.404;-1.510;2023-04-10T06:20:40;99628.59;;;15.35;58.36
21988;BME280;11158;53.404;-1.510;2023-04-10T06:23:30;99623.53;;;15.62;57.54
21988;BME280;11158;53.404;-1.510;2023-04-10T06:26:14;99622.97;;;15.72;57.06
21988;BME280;11158;53.404;-1.510;2023-04-10T06:28:59;99626.09;;;15.68;57.08
21988;BME280;11158;53.404;-1.510;2023-04-10T06:31:43;99610.25;;;15.96;56.78
21988;BME280;11158;53.404;-1.510;2023-04-10T06:34:27;99607.50;;;15.79;56.44
21988;BME280;11158;53.404;-1.510;2023-04-10T06:37:11;99608.31;;;16.20;56.03
21988;BME280;11158;53.404;-1.510;2023-04-10T06:40:09;99596.72;;;15.79;56.81
21988;BME280;11158;53.404;-1.510;2023-04-10T06:42:54;99587.16;;;16.28;55.83
21988;BME280;11158;53.404;-1.510;2023-04-10T06:45:38;99596.81;;;16.12;56.02
21988;BME280;11158;53.404;-1.510;2023-04-10T06:48:23;99587.34;;;15.46;58.24
21988;BME280;11158;53.404;-1.510;2023-04-10T06:51:07;99588.50;;;16.14;56.46
21988;BME280;11158;53.404;-1.510;2023-04-10T06:53:51;99584.88;;;15.80;57.16
21988;BME280;11158;53.404;-1.510;2023-04-10T06:56:35;99575.19;;;15.43;58.20
21988;BME280;11158;53.404;-1.510;2023-04-10T06:59:19;99572.13;;;15.63;57.65
21988;BME280;11158;53.404;-1.510;2023-04-10T07:02:03;99569.09;;;15.72;56.98
21988;BME280;11158;53.404;-1.510;2023-04-10T07:04:47;99563.28;;;15.91;56.68
21988;BME280;11158;53.404;-1.510;2023-04-10T07:07:32;99563.56;;;15.78;56.53
21988;BME280;11158;53.404;-1.510;2023-04-10T07:10:16;99557.97;;;16.08;56.18
21988;BME280;11158;53.404;-1.510;2023-04-10T07:13:00;99559.00;;;16.36;55.77
21988;BME280;11158;53.404;-1.510;2023-04-10T07:15:45;99555.38;;;16.30;55.22
21988;BME280;11158;53.404;-1.510;2023-04-10T07:18:29;99532.47;;;16.45;55.24
21988;BME280;11158;53.404;-1.510;2023-04-10T07:21:13;99536.69;;;16.58;55.06
21988;BME280;11158;53.404;-1.510;2023-04-10T07:23:57;99542.31;;;16.39;55.84
21988;BME280;11158;53.404;-1.510;2023-04-10T07:26:42;99554.53;;;16.13;56.07
21988;BME280;11158;53.404;-1.510;2023-04-10T07:29:27;99541.53;;;16.10;56.11
21988;BME280;11158;53.404;-1.510;2023-04-10T07:32:11;99527.28;;;16.60;54.86
21988;BME280;11158;53.404;-1.510;2023-04-10T07:34:55;99535.47;;;16.99;53.46
21988;BME280;11158;53.404;-1.510;2023-04-10T07:37:39;99544.25;;;16.89;54.70
21988;BME280;11158;53.404;-1.510;2023-04-10T07:40:24;99545.56;;;16.87;54.00
21988;BME280;11158;53.404;-1.510;2023-04-10T07:43:09;99544.84;;;16.29;55.70
21988;BME280;11158;53.404;-1.510;2023-04-10T07:45:54;99525.41;;;16.44;54.56
21988;BME280;11158;53.404;-1.510;2023-04-10T07:48:39;99528.34;;;16.42;55.30
21988;BME280;11158;53.404;-1.510;2023-04-10T07:51:23;99522.16;;;16.59;54.74
21988;BME280;11158;53.404;-1.510;2023-04-10T07:54:08;99505.19;;;17.14;53.22
21988;BME280;11158;53.404;-1.510;2023-04-10T07:56:52;99493.16;;;17.88;51.75
21988;BME280;11158;53.404;-1.510;2023-04-10T07:59:36;99492.84;;;17.62;51.84
21988;BME280;11158;53.404;-1.510;2023-04-10T08:02:20;99482.41;;;17.71;52.00
21988;BME280;11158;53.404;-1.510;2023-04-10T08:05:05;99488.16;;;17.79;51.15
21988;BME280;11158;53.404;-1.510;2023-04-10T08:07:49;99489.75;;;17.75;51.47
21988;BME280;11158;53.404;-1.510;2023-04-10T08:10:35;99477.75;;;16.83;54.08
21988;BME280;11158;53.404;-1.510;2023-04-10T08:13:20;99468.22;;;17.36;52.54
21988;BME280;11158;53.404;-1.510;2023-04-10T08:16:04;99467.06;;;17.76;51.76
21988;BME280;11158;53.404;-1.510;2023-04-10T08:18:49;99453.31;;;17.56;51.96
21988;BME280;11158;53.404;-1.510;2023-04-10T08:21:34;99446.94;;;18.16;51.18
21988;BME280;11158;53.404;-1.510;2023-04-10T08:24:18;99447.75;;;17.90;51.22
21988;BME280;11158;53.404;-1.510;2023-04-10T08:27:04;99447.06;;;17.77;51.56
21988;BME280;11158;53.404;-1.510;2023-04-10T08:29:48;99446.63;;;17.64;51.79
21988;BME280;11158;53.404;-1.510;2023-04-10T08:32:32;99451.19;;;17.58;51.63
21988;BME280;11158;53.404;-1.510;2023-04-10T08:35:16;99443.78;;;17.04;52.96
21988;BME280;11158;53.404;-1.510;2023-04-10T08:38:00;99441.97;;;16.37;54.73
21988;BME280;11158;53.404;-1.510;2023-04-10T08:40:44;99437.28;;;16.83;53.75
21988;BME280;11158;53.404;-1.510;2023-04-10T08:43:29;99432.59;;;16.95;53.42
21988;BME280;11158;53.404;-1.510;2023-04-10T08:46:13;99421.75;;;17.12;53.62
21988;BME280;11158;53.404;-1.510;2023-04-10T08:49:02;99419.06;;;16.57;54.60
21988;BME280;11158;53.404;-1.510;2023-04-10T08:51:57;99408.75;;;16.70;54.16
21988;BME280;11158;53.404;-1.510;2023-04-10T08:54:47;99401.78;;;17.13;52.67
21988;BME280;11158;53.404;-1.510;2023-04-10T08:57:32;99408.63;;;17.21;52.42
21988;BME280;11158;53.404;-1.510;2023-04-10T09:00:17;99405.41;;;16.46;54.24
21988;BME280;11158;53.404;-1.510;2023-04-10T09:03:01;99404.72;;;16.73;53.81
21988;BME280;11158;53.404;-1.510;2023-04-10T09:05:47;99397.03;;;16.43;54.72
21988;BME280;11158;53.404;-1.510;2023-04-10T09:08:32;99393.59;;;16.47;54.27
21988;BME280;11158;53.404;-1.510;2023-04-10T09:11:17;99387.31;;;16.25;54.36
21988;BME280;11158;53.404;-1.510;2023-04-10T09:14:01;99389.25;;;16.46;53.79
21988;BME280;11158;53.404;-1.510;2023-04-10T09:16:45;99375.34;;;16.38;53.94
21988;BME280;11158;53.404;-1.510;2023-04-10T09:19:30;99367.88;;;17.23;52.12
21988;BME280;11158;53.404;-1.510;2023-04-10T09:22:15;99359.84;;;17.55;51.32
21988;BME280;11158;53.404;-1.510;2023-04-10T09:25:01;99355.84;;;18.27;48.93
21988;BME280;11158;53.404;-1.510;2023-04-10T09:27:46;99352.28;;;17.57;49.93
21988;BME280;11158;53.404;-1.510;2023-04-10T09:30:37;99355.19;;;17.23;51.44
21988;BME280;11158;53.404;-1.510;2023-04-10T09:33:24;99344.19;;;16.64;52.58
21988;BME280;11158;53.404;-1.510;2023-04-10T09:36:13;99329.53;;;16.60;52.32
21988;BME280;11158;53.404;-1.510;2023-04-10T09:38:58;99331.34;;;15.98;54.13
21988;BME280;11158;53.404;-1.510;2023-04-10T09:41:50;99329.91;;;15.90;54.27
21988;BME280;11158;53.404;-1.510;2023-04-10T09:44:36;99328.00;;;16.47;53.18
21988;BME280;11158;53.404;-1.510;2023-04-10T09:47:21;99319.19;;;16.51;52.50
21988;BME280;11158;53.404;-1.510;2023-04-10T09:50:06;99308.44;;;16.95;51.69
21988;BME280;11158;53.404;-1.510;2023-04-10T09:52:56;99294.91;;;16.12;52.62
21988;BME280;11158;53.404;-1.510;2023-04-10T09:55:41;99277.44;;;17.85;49.26
21988;BME280;11158;53.404;-1.510;2023-04-10T09:58:26;99277.41;;;18.27;48.15
21988;BME280;11158;53.404;-1.510;2023-04-10T10:01:11;99271.31;;;18.47;47.92
21988;BME280;11158;53.404;-1.510;2023-04-10T10:04:01;99243.94;;;18.43;47.63
21988;BME280;11158;53.404;-1.510;2023-04-10T10:06:45;99247.06;;;17.13;49.73
21988;BME280;11158;53.404;-1.510;2023-04-10T10:09:30;99238.22;;;17.82;48.36
21988;BME280;11158;53.404;-1.510;2023-04-10T10:12:22;99233.47;;;17.30;49.42
21988;BME280;11158;53.404;-1.510;2023-04-10T10:18:09;99231.63;;;17.08;49.48
21988;BME280;11158;53.404;-1.510;2023-04-10T10:20:55;99233.16;;;17.64;49.01
21988;BME280;11158;53.404;-1.510;2023-04-10T10:23:41;99225.56;;;16.96;49.61
21988;BME280;11158;53.404;-1.510;2023-04-10T10:26:31;99216.75;;;18.08;47.27
21988;BME280;11158;53.404;-1.510;2023-04-10T10:29:17;99215.75;;;18.92;45.01
21988;BME280;11158;53.404;-1.510;2023-04-10T10:32:05;99211.72;;;18.32;45.52
21988;BME280;11158;53.404;-1.510;2023-04-10T10:34:51;99205.84;;;18.55;44.52
21988;BME280;11158;53.404;-1.510;2023-04-10T10:37:36;99204.22;;;18.59;44.29
21988;BME280;11158;53.404;-1.510;2023-04-10T10:40:28;99211.84;;;18.73;43.38
21988;BME280;11158;53.404;-1.510;2023-04-10T10:43:44;99256.06;;;16.08;44.52
21988;BME280;11158;53.404;-1.510;2023-04-10T10:46:46;99247.16;;;15.23;47.32
21988;BME280;11158;53.404;-1.510;2023-04-10T10:55:40;99222.53;;;14.57;47.20
21988;BME280;11158;53.404;-1.510;2023-04-10T10:58:51;99192.91;;;15.32;45.68
21988;BME280;11158;53.404;-1.510;2023-04-10T11:01:35;99195.50;;;15.26;46.28
21988;BME280;11158;53.404;-1.510;2023-04-10T11:04:42;99190.75;;;16.01;44.69
21988;BME280;11158;53.404;-1.510;2023-04-10T11:16:41;99206.50;;;12.97;54.44
21988;BME280;11158;53.404;-1.510;2023-04-10T11:19:59;99190.50;;;12.91;55.96
21988;BME280;11158;53.404;-1.510;2023-04-10T11:23:09;99173.13;;;12.93;56.90
21988;BME280;11158;53.404;-1.510;2023-04-10T11:25:54;99167.03;;;14.39;54.43
21988;BME280;11158;53.404;-1.510;2023-04-10T11:28:38;99155.78;;;14.14;54.05
21988;BME280;11158;53.404;-1.510;2023-04-10T11:31:23;99139.75;;;14.48;53.47
21988;BME280;11158;53.404;-1.510;2023-04-10T11:34:08;99143.69;;;14.28;54.50
21988;BME280;11158;53.404;-1.510;2023-04-10T11:36:55;99139.88;;;14.98;53.62
21988;BME280;11158;53.404;-1.510;2023-04-10T11:39:40;99139.28;;;14.10;55.59
21988;BME280;11158;53.404;-1.510;2023-04-10T11:42:24;99140.66;;;13.37;56.62
21988;BME280;11158;53.404;-1.510;2023-04-10T11:45:22;99133.56;;;13.54;57.24
21988;BME280;11158;53.404;-1.510;2023-04-10T11:48:06;99120.47;;;14.96;53.89
21988;BME280;11158;53.404;-1.510;2023-04-10T11:50:50;99115.06;;;15.47;53.41
21988;BME280;11158;53.404;-1.510;2023-04-10T11:53:34;99093.00;;;16.92;49.32
21988;BME280;11158;53.404;-1.510;2023-04-10T11:56:19;99089.59;;;17.45;47.74
21988;BME280;11158;53.404;-1.510;2023-04-10T11:59:05;99078.81;;;17.50;47.09
21988;BME280;11158;53.404;-1.510;2023-04-10T12:02:12;99072.66;;;18.12;47.24
21988;BME280;11158;53.404;-1.510;2023-04-10T12:04:57;99094.94;;;17.34;48.02
21988;BME280;11158;53.404;-1.510;2023-04-10T12:07:42;99183.56;;;14.88;57.40
21988;BME280;11158;53.404;-1.510;2023-04-10T12:10:26;99168.63;;;12.45;61.49
21988;BME280;11158;53.404;-1.510;2023-04-10T12:13:27;99152.78;;;12.44;61.38
21988;BME280;11158;53.404;-1.510;2023-04-10T12:16:11;99136.22;;;12.77;60.19
21988;BME280;11158;53.404;-1.510;2023-04-10T12:18:55;99130.31;;;12.98;59.46
21988;BME280;11158;53.404;-1.510;2023-04-10T12:21:40;99113.69;;;12.66;59.35
21988;BME280;11158;53.404;-1.510;2023-04-10T12:24:51;99092.31;;;13.84;57.46
21988;BME280;11158;53.404;-1.510;2023-04-10T12:27:36;99084.22;;;14.24;55.52
21988;BME280;11158;53.404;-1.510;2023-04-10T12:30:20;99079.03;;;13.66;58.71
21988;BME280;11158;53.404;-1.510;2023-04-10T12:33:05;99067.28;;;14.86;57.00
21988;BME280;11158;53.404;-1.510;2023-04-10T12:35:51;99071.88;;;14.12;57.31
21988;BME280;11158;53.404;-1.510;2023-04-10T12:38:40;99062.56;;;14.31;58.15
21988;BME280;11158;53.404;-1.510;2023-04-10T12:41:27;99053.66;;;13.73;56.56
21988;BME280;11158;53.404;-1.510;2023-04-10T12:44:13;99060.69;;;13.74;56.44
21988;BME280;11158;53.404;-1.510;2023-04-10T12:47:02;99050.59;;;13.41;57.45
21988;BME280;11158;53.404;-1.510;2023-04-10T12:50:05;99041.19;;;13.67;55.88
21988;BME280;11158;53.404;-1.510;2023-04-10T12:53:04;99038.78;;;14.85;54.78
21988;BME280;11158;53.404;-1.510;2023-04-10T12:56:01;99047.94;;;14.39;53.10
21988;BME280;11158;53.404;-1.510;2023-04-10T12:58:45;99041.72;;;15.01;51.40
21988;BME280;11158;53.404;-1.510;2023-04-10T13:01:30;99072.03;;;15.52;50.69
21988;BME280;11158;53.404;-1.510;2023-04-10T13:04:14;99054.84;;;14.52;52.31
21988;BME280;11158;53.404;-1.510;2023-04-10T13:06:59;99071.56;;;14.82;50.91
21988;BME280;11158;53.404;-1.510;2023-04-10T13:09:43;99094.25;;;14.58;53.14
21988;BME280;11158;53.404;-1.510;2023-04-10T13:12:28;99082.28;;;14.65;53.79
21988;BME280;11158;53.404;-1.510;2023-04-10T13:15:13;99097.94;;;13.59;57.40
21988;BME280;11158;53.404;-1.510;2023-04-10T13:17:57;99088.72;;;13.67;56.89
21988;BME280;11158;53.404;-1.510;2023-04-10T13:20:41;99082.63;;;14.69;54.00
21988;BME280;11158;53.404;-1.510;2023-04-10T13:23:25;99090.28;;;14.60;53.38
21988;BME280;11158;53.404;-1.510;2023-04-10T13:26:09;99082.16;;;14.43;51.48
21988;BME280;11158;53.404;-1.510;2023-04-10T13:28:53;99079.88;;;14.07;50.91
21988;BME280;11158;53.404;-1.510;2023-04-10T13:31:38;99108.31;;;15.66;48.30
21988;BME280;11158;53.404;-1.510;2023-04-10T13:34:22;99132.25;;;15.46;47.97
21988;BME280;11158;53.404;-1.510;2023-04-10T13:37:08;99156.75;;;15.11;48.98
21988;BME280;11158;53.404;-1.510;2023-04-10T13:39:54;99134.34;;;15.05;50.31
21988;BME280;11158;53.404;-1.510;2023-04-10T13:42:39;99129.88;;;14.65;50.05
21988;BME280;11158;53.404;-1.510;2023-04-10T13:45:23;99139.28;;;14.10;51.11
21988;BME280;11158;53.404;-1.510;2023-04-10T13:48:08;99136.09;;;14.54;51.41
21988;BME280;11158;53.404;-1.510;2023-04-10T13:50:52;99141.19;;;13.98;54.71
21988;BME280;11158;53.404;-1.510;2023-04-10T13:53:36;99137.53;;;14.56;54.12
21988;BME280;11158;53.404;-1.510;2023-04-10T13:56:20;99132.88;;;13.99;55.53
21988;BME280;11158;53.404;-1.510;2023-04-10T13:59:04;99123.38;;;14.20;53.49
21988;BME280;11158;53.404;-1.510;2023-04-10T14:01:48;99126.41;;;14.53;53.26
21988;BME280;11158;53.404;-1.510;2023-04-10T14:04:36;99138.91;;;13.78;54.75
21988;BME280;11158;53.404;-1.510;2023-04-10T14:07:21;99118.81;;;14.61;52.11
21988;BME280;11158;53.404;-1.510;2023-04-10T14:10:06;99128.88;;;15.17;52.94
21988;BME280;11158;53.404;-1.510;2023-04-10T14:12:50;99127.03;;;14.43;55.70
21988;BME280;11158;53.404;-1.510;2023-04-10T14:15:34;99123.91;;;14.92;54.28
21988;BME280;11158;53.404;-1.510;2023-04-10T14:18:19;99125.69;;;13.88;56.15
21988;BME280;11158;53.404;-1.510;2023-04-10T14:21:03;99120.22;;;14.81;53.68
21988;BME280;11158;53.404;-1.510;2023-04-10T14:23:47;99127.63;;;15.24;52.63
21988;BME280;11158;53.404;-1.510;2023-04-10T14:26:31;99128.34;;;14.00;54.31
21988;BME280;11158;53.404;-1.510;2023-04-10T14:29:15;99120.88;;;15.05;51.44
21988;BME280;11158;53.404;-1.510;2023-04-10T14:32:00;99120.84;;;14.71;52.87
21988;BME280;11158;53.404;-1.510;2023-04-10T14:34:43;99134.53;;;14.00;53.93
21988;BME280;11158;53.404;-1.510;2023-04-10T14:37:28;99138.00;;;14.13;54.75
21988;BME280;11158;53.404;-1.510;2023-04-10T14:40:12;99134.13;;;13.68;56.31
21988;BME280;11158;53.404;-1.510;2023-04-10T14:42:56;99144.13;;;13.26;57.68
21988;BME280;11158;53.404;-1.510;2023-04-10T14:45:41;99151.25;;;13.20;57.73
21988;BME280;11158;53.404;-1.510;2023-04-10T14:48:25;99148.31;;;13.21;57.70
21988;BME280;11158;53.404;-1.510;2023-04-10T14:51:09;99140.75;;;13.89;56.51
21988;BME280;11158;53.404;-1.510;2023-04-10T14:53:55;99143.75;;;14.57;54.43
21988;BME280;11158;53.404;-1.510;2023-04-10T14:56:39;99139.03;;;16.04;52.15
21988;BME280;11158;53.404;-1.510;2023-04-10T14:59:23;99141.19;;;15.13;54.00